sensor_id;sensor_type;location;lat;lon;timestamp;pressure;altitude;pressure_sealevel;temperature;humidity
3178;BME280;38141;42.666;23.344;2024-02-14T00:00:19;94386.13;;;6.45;100.00
3178;BME280;38141;42.666;23.344;2024-02-14T00:02:46;94390.16;;;6.32;100.00
3178;BME280;38141;42.666;23.344;2024-02-14T00:05:15;94378.28;;;6.33;100.00
3178;BME280;38141;42.666;23.344;2024-02-14T00:07:42;94395.22;;;6.37;100.00
3178;BME280;38141;42.666;23.344;2024-02-14T00:10:10;94385.03;;;6.23;100.00
3178;BME280;38141;42.666;23.344;2024-02-14T00:12:37;94396.03;;;6.41;100.00
3178;BME280;38141;42.666;23.344;2024-02-14T00:15:05;94405.34;;;6.47;100.00
3178;BME280;38141;42.666;23.344;2024-02-14T00:17:34;94393.81;;;6.46;100.00
3178;BME280;38141;42.666;23.344;2024-02-14T00:20:01;94397.97;;;6.40;100.00
3178;BME280;38141;42.666;23.344;2024-02-14T00:22:29;94407.03;;;6.32;100.00
3178;BME280;38141;42.666;23.344;2024-02-14T00:24:56;94397.19;;;6.40;100.00
3178;BME280;38141;42.666;23.344;2024-02-14T00:27:23;94420.69;;;6.46;100.00
3178;BME280;38141;42.666;23.344;2024-02-14T00:29:52;94398.06;;;6.47;100.00
3178;BME280;38141;42.666;23.344;2024-02-14T00:32:19;94391.19;;;6.23;100.00
3178;BME280;38141;42.666;23.344;2024-02-14T00:34:48;94403.22;;;6.33;100.00
3178;BME280;38141;42.666;23.344;2024-02-14T00:37:15;94398.94;;;6.29;100.00
3178;BME280;38141;42.666;23.344;2024-02-14T00:39:42;94409.06;;;6.39;100.00
3178;BME280;38141;42.666;23.344;2024-02-14T00:42:09;94414.41;;;6.35;100.00
3178;BME280;38141;42.666;23.344;2024-02-14T00:44:36;94407.16;;;6.39;100.00
3178;BME280;38141;42.666;23.344;2024-02-14T00:47:03;94406.06;;;6.44;100.00
3178;BME280;38141;42.666;23.344;2024-02-14T00:49:34;94402.69;;;6.24;100.00
3178;BME280;38141;42.666;23.344;2024-02-14T00:52:03;94407.25;;;6.20;100.00
3178;BME280;38141;42.666;23.344;2024-02-14T00:54:30;94388.03;;;6.18;100.00
3178;BME280;38141;42.666;23.344;2024-02-14T00:56:57;94415.56;;;6.38;100.00
3178;BME280;38141;42.666;23.344;2024-02-14T00:59:24;94413.66;;;6.38;100.00
3178;BME280;38141;42.666;23.344;2024-02-14T01:01:51;94408.56;;;6.30;100.00
3178;BME280;38141;42.666;23.344;2024-02-14T01:04:18;94424.31;;;6.31;100.00
3178;BME280;38141;42.666;23.344;2024-02-14T01:06:45;94425.28;;;6.46;100.00
3178;BME280;38141;42.666;23.344;2024-02-14T01:09:15;94418.72;;;6.43;100.00
3178;BME280;38141;42.666;23.344;2024-02-14T01:11:42;94409.69;;;6.29;100.00
3178;BME280;38141;42.666;23.344;2024-02-14T01:14:09;94422.91;;;6.41;100.00
3178;BME280;38141;42.666;23.344;2024-02-14T01:16:42;94412.31;;;6.25;100.00
3178;BME280;38141;42.666;23.344;2024-02-14T01:19:10;94417.47;;;6.37;100.00
3178;BME280;38141;42.666;23.344;2024-02-14T01:21:37;94411.22;;;6.30;100.00
3178;BME280;38141;42.666;23.344;2024-02-14T01:24:04;94421.38;;;6.40;100.00
3178;BME280;38141;42.666;23.344;2024-02-14T01:40:07;94411.38;;;6.66;100.00
3178;BME280;38141;42.666;23.344;2024-02-14T01:42:34;94411.06;;;6.45;100.00
3178;BME280;38141;42.666;23.344;2024-02-14T01:45:01;94417.22;;;6.46;100.00
3178;BME280;38141;42.666;23.344;2024-02-14T01:47:29;94416.41;;;6.42;100.00
3178;BME280;38141;42.666;23.344;2024-02-14T01:49:57;94412.00;;;6.56;100.00
3178;BME280;38141;42.666;23.344;2024-02-14T01:52:24;94399.09;;;6.39;100.00
3178;BME280;38141;42.666;23.344;2024-02-14T01:54:51;94414.59;;;6.49;100.00
3178;BME280;38141;42.666;23.344;2024-02-14T01:57:22;94409.22;;;6.49;100.00
3178;BME280;38141;42.666;23.344;2024-02-14T01:59:51;94413.00;;;6.45;100.00
3178;BME280;38141;42.666;23.344;2024-02-14T02:02:20;94403.53;;;6.28;100.00
3178;BME280;38141;42.666;23.344;2024-02-14T02:04:47;94409.53;;;6.44;100.00
3178;BME280;38141;42.666;23.344;2024-02-14T02:07:14;94418.22;;;6.34;100.00
3178;BME280;38141;42.666;23.344;2024-02-14T02:09:41;94416.31;;;6.35;100.00
3178;BME280;38141;42.666;23.344;2024-02-14T02:12:08;94420.94;;;6.38;100.00
3178;BME280;38141;42.666;23.344;2024-02-14T02:14:36;94425.91;;;6.36;100.00
3178;BME280;38141;42.666;23.344;2024-02-14T02:17:03;94425.84;;;6.32;100.00
3178;BME280;38141;42.666;23.344;2024-02-14T02:19:33;94424.75;;;6.37;100.00
3178;BME280;38141;42.666;23.344;2024-02-14T02:22:01;94431.22;;;6.32;100.00
3178;BME280;38141;42.666;23.344;2024-02-14T02:24:31;94428.13;;;6.30;100.00
3178;BME280;38141;42.666;23.344;2024-02-14T02:26:58;94427.91;;;6.42;100.00
3178;BME280;38141;42.666;23.344;2024-02-14T02:29:25;94436.66;;;6.36;100.00
3178;BME280;38141;42.666;23.344;2024-02-14T02:31:52;94432.69;;;6.26;100.00
3178;BME280;38141;42.666;23.344;2024-02-14T02:34:19;94432.38;;;6.31;100.00
3178;BME280;38141;42.666;23.344;2024-02-14T02:36:46;94438.09;;;6.30;100.00
3178;BME280;38141;42.666;23.344;2024-02-14T02:39:16;94414.06;;;6.14;100.00
3178;BME280;38141;42.666;23.344;2024-02-14T02:41:44;94428.53;;;6.32;100.00
3178;BME280;38141;42.666;23.344;2024-02-14T02:44:13;94432.38;;;6.31;100.00
3178;BME280;38141;42.666;23.344;2024-02-14T02:46:40;94434.84;;;6.17;100.00
3178;BME280;38141;42.666;23.344;2024-02-14T02:49:07;94446.25;;;6.37;100.00
3178;BME280;38141;42.666;23.344;2024-02-14T02:51:39;94451.94;;;6.32;100.00
3178;BME280;38141;42.666;23.344;2024-02-14T02:54:06;94437.56;;;6.20;100.00
3178;BME280;38141;42.666;23.344;2024-02-14T02:56:34;94445.31;;;6.25;100.00
3178;BME280;38141;42.666;23.344;2024-02-14T02:59:02;94445.19;;;6.18;100.00
3178;BME280;38141;42.666;23.344;2024-02-14T03:01:35;94456.63;;;6.12;100.00
3178;BME280;38141;42.666;23.344;2024-02-14T03:04:02;94447.50;;;6.16;100.00
3178;BME280;38141;42.666;23.344;2024-02-14T03:06:30;94453.16;;;6.11;100.00
3178;BME280;38141;42.666;23.344;2024-02-14T03:08:57;94468.66;;;6.21;100.00
3178;BME280;38141;42.666;23.344;2024-02-14T03:11:24;94471.94;;;6.34;100.00
3178;BME280;38141;42.666;23.344;2024-02-14T03:13:52;94467.94;;;6.24;100.00
3178;BME280;38141;42.666;23.344;2024-02-14T03:16:20;94476.00;;;6.24;100.00
3178;BME280;38141;42.666;23.344;2024-02-14T03:18:50;94477.97;;;6.28;100.00
3178;BME280;38141;42.666;23.344;2024-02-14T03:21:17;94476.72;;;6.21;100.00
3178;BME280;38141;42.666;23.344;2024-02-14T03:23:44;94482.56;;;6.27;100.00
3178;BME280;38141;42.666;23.344;2024-02-14T03:26:11;94484.84;;;6.25;100.00
3178;BME280;38141;42.666;23.344;2024-02-14T03:28:38;94482.44;;;6.20;100.00
3178;BME280;38141;42.666;23.344;2024-02-14T03:31:05;94487.38;;;6.18;100.00
3178;BME280;38141;42.666;23.344;2024-02-14T03:33:34;94491.16;;;6.13;100.00
3178;BME280;38141;42.666;23.344;2024-02-14T03:36:01;94499.00;;;6.22;100.00
3178;BME280;38141;42.666;23.344;2024-02-14T03:38:28;94505.53;;;6.24;100.00
3178;BME280;38141;42.666;23.344;2024-02-14T03:40:56;94500.91;;;6.21;100.00
3178;BME280;38141;42.666;23.344;2024-02-14T03:43:23;94503.63;;;6.25;100.00
3178;BME280;38141;42.666;23.344;2024-02-14T03:45:50;94500.81;;;6.18;100.00
3178;BME280;38141;42.666;23.344;2024-02-14T03:48:17;94495.78;;;6.13;100.00
3178;BME280;38141;42.666;23.344;2024-02-14T03:50:46;94505.53;;;6.24;100.00
3178;BME280;38141;42.666;23.344;2024-02-14T03:53:13;94511.22;;;6.19;100.00
3178;BME280;38141;42.666;23.344;2024-02-14T03:55:41;94511.94;;;6.16;100.00
3178;BME280;38141;42.666;23.344;2024-02-14T03:58:08;94519.56;;;6.14;100.00
3178;BME280;38141;42.666;23.344;2024-02-14T04:00:35;94510.72;;;6.14;100.00
3178;BME280;38141;42.666;23.344;2024-02-14T04:03:02;94505.53;;;6.24;100.00
3178;BME280;38141;42.666;23.344;2024-02-14T04:05:29;94505.78;;;6.16;100.00
3178;BME280;38141;42.666;23.344;2024-02-14T04:07:57;94514.19;;;6.14;100.00
3178;BME280;38141;42.666;23.344;2024-02-14T04:10:24;94521.84;;;6.12;100.00
3178;BME280;38141;42.666;23.344;2024-02-14T04:12:51;94529.41;;;6.07;100.00
3178;BME280;38141;42.666;23.344;2024-02-14T04:15:18;94523.75;;;6.12;100.00
3178;BME280;38141;42.666;23.344;2024-02-14T04:17:45;94530.78;;;6.20;100.00
3178;BME280;38141;42.666;23.344;2024-02-14T04:20:12;94534.97;;;6.17;100.00
3178;BME280;38141;42.666;23.344;2024-02-14T04:22:39;94538.41;;;6.18;100.00
3178;BME280;38141;42.666;23.344;2024-02-14T04:25:10;94550.19;;;6.10;100.00
3178;BME280;38141;42.666;23.344;2024-02-14T04:27:37;94547.75;;;6.24;100.00
3178;BME280;38141;42.666;23.344;2024-02-14T04:30:06;94548.81;;;6.19;100.00
3178;BME280;38141;42.666;23.344;2024-02-14T04:32:33;94544.66;;;6.22;100.00
3178;BME280;38141;42.666;23.344;2024-02-14T04:35:00;94549.09;;;6.14;100.00
3178;BME280;38141;42.666;23.344;2024-02-14T04:37:27;94546.25;;;6.27;100.00
3178;BME280;38141;42.666;23.344;2024-02-14T04:39:55;94549.28;;;6.25;100.00
3178;BME280;38141;42.666;23.344;2024-02-14T04:42:23;94552.38;;;6.27;100.00
3178;BME280;38141;42.666;23.344;2024-02-14T04:44:50;94561.41;;;6.38;100.00
3178;BME280;38141;42.666;23.344;2024-02-14T04:47:17;94562.72;;;6.25;100.00
3178;BME280;38141;42.666;23.344;2024-02-14T04:49:44;94563.25;;;6.11;100.00
3178;BME280;38141;42.666;23.344;2024-02-14T04:52:11;94564.66;;;6.05;100.00
3178;BME280;38141;42.666;23.344;2024-02-14T04:56:30;94569.91;;;6.17;100.00
3178;BME280;38141;42.666;23.344;2024-02-14T04:58:58;94577.88;;;6.14;100.00
3178;BME280;38141;42.666;23.344;2024-02-14T05:01:25;94574.53;;;6.20;100.00
3178;BME280;38141;42.666;23.344;2024-02-14T05:03:52;94574.72;;;6.08;100.00
3178;BME280;38141;42.666;23.344;2024-02-14T05:06:19;94575.78;;;6.04;100.00
3178;BME280;38141;42.666;23.344;2024-02-14T05:08:46;94573.78;;;6.01;100.00
3178;BME280;38141;42.666;23.344;2024-02-14T05:11:13;94590.34;;;6.03;100.00
3178;BME280;38141;42.666;23.344;2024-02-14T05:13:42;94588.56;;;5.91;100.00
3178;BME280;38141;42.666;23.344;2024-02-14T05:16:09;94578.19;;;5.90;100.00
3178;BME280;38141;42.666;23.344;2024-02-14T05:18:36;94598.78;;;6.05;100.00
3178;BME280;38141;42.666;23.344;2024-02-14T05:21:05;94604.25;;;6.08;100.00
3178;BME280;38141;42.666;23.344;2024-02-14T05:23:33;94600.97;;;6.18;100.00
3178;BME280;38141;42.666;23.344;2024-02-14T05:26:00;94611.78;;;6.22;100.00
3178;BME280;38141;42.666;23.344;2024-02-14T05:28:27;94614.28;;;6.11;100.00
3178;BME280;38141;42.666;23.344;2024-02-14T05:30:56;94616.81;;;6.04;100.00
3178;BME280;38141;42.666;23.344;2024-02-14T05:33:23;94627.94;;;6.03;100.00
3178;BME280;38141;42.666;23.344;2024-02-14T05:35:51;94623.19;;;5.96;100.00
3178;BME280;38141;42.666;23.344;2024-02-14T05:38:18;94621.56;;;5.92;100.00
3178;BME280;38141;42.666;23.344;2024-02-14T05:40:46;94633.41;;;5.91;100.00
3178;BME280;38141;42.666;23.344;2024-02-14T05:43:13;94629.00;;;5.98;100.00
3178;BME280;38141;42.666;23.344;2024-02-14T05:45:41;94645.03;;;5.95;100.00
3178;BME280;38141;42.666;23.344;2024-02-14T05:48:09;94642.03;;;6.00;100.00
3178;BME280;38141;42.666;23.344;2024-02-14T05:50:36;94646.72;;;6.03;100.00
3178;BME280;38141;42.666;23.344;2024-02-14T05:53:03;94647.41;;;6.00;100.00
3178;BME280;38141;42.666;23.344;2024-02-14T05:55:31;94652.50;;;6.05;100.00
3178;BME280;38141;42.666;23.344;2024-02-14T05:57:59;94667.63;;;5.94;100.00
3178;BME280;38141;42.666;23.344;2024-02-14T06:00:26;94651.94;;;5.96;100.00
3178;BME280;38141;42.666;23.344;2024-02-14T06:02:53;94663.09;;;5.98;100.00
3178;BME280;38141;42.666;23.344;2024-02-14T06:05:21;94668.31;;;5.91;100.00
3178;BME280;38141;42.666;23.344;2024-02-14T06:07:48;94674.06;;;5.89;100.00
3178;BME280;38141;42.666;23.344;2024-02-14T06:10:16;94664.16;;;5.93;100.00
3178;BME280;38141;42.666;23.344;2024-02-14T06:12:43;94674.56;;;5.95;100.00
3178;BME280;38141;42.666;23.344;2024-02-14T06:15:10;94675.03;;;6.00;100.00
3178;BME280;38141;42.666;23.344;2024-02-14T06:17:37;94685.00;;;6.19;100.00
3178;BME280;38141;42.666;23.344;2024-02-14T06:20:05;94685.44;;;6.02;100.00
3178;BME280;38141;42.666;23.344;2024-02-14T06:22:34;94687.56;;;6.12;100.00
3178;BME280;38141;42.666;23.344;2024-02-14T06:25:01;94693.63;;;6.09;100.00
3178;BME280;38141;42.666;23.344;2024-02-14T06:27:30;94693.22;;;6.07;100.00
3178;BME280;38141;42.666;23.344;2024-02-14T06:29:57;94696.75;;;6.11;100.00
3178;BME280;38141;42.666;23.344;2024-02-14T06:32:25;94697.88;;;6.10;100.00
3178;BME280;38141;42.666;23.344;2024-02-14T06:34:52;94697.09;;;6.09;100.00
3178;BME280;38141;42.666;23.344;2024-02-14T06:37:19;94686.06;;;5.95;100.00
3178;BME280;38141;42.666;23.344;2024-02-14T06:39:47;94700.56;;;6.10;100.00
3178;BME280;38141;42.666;23.344;2024-02-14T06:42:15;94702.56;;;6.13;100.00
3178;BME280;38141;42.666;23.344;2024-02-14T06:44:42;94704.38;;;6.28;100.00
3178;BME280;38141;42.666;23.344;2024-02-14T06:47:09;94710.72;;;6.01;100.00
3178;BME280;38141;42.666;23.344;2024-02-14T06:49:36;94709.94;;;6.00;100.00
3178;BME280;38141;42.666;23.344;2024-02-14T06:52:04;94711.09;;;5.99;100.00
3178;BME280;38141;42.666;23.344;2024-02-14T06:54:31;94723.59;;;6.11;100.00
3178;BME280;38141;42.666;23.344;2024-02-14T06:56:59;94720.78;;;6.04;100.00
3178;BME280;38141;42.666;23.344;2024-02-14T06:59:26;94718.38;;;5.99;100.00
3178;BME280;38141;42.666;23.344;2024-02-14T07:01:53;94718.00;;;6.00;100.00
3178;BME280;38141;42.666;23.344;2024-02-14T07:04:21;94727.84;;;6.12;100.00
3178;BME280;38141;42.666;23.344;2024-02-14T07:06:51;94722.41;;;6.08;100.00
3178;BME280;38141;42.666;23.344;2024-02-14T07:09:19;94728.41;;;6.21;100.00
3178;BME280;38141;42.666;23.344;2024-02-14T07:11:46;94737.72;;;6.27;100.00
3178;BME280;38141;42.666;23.344;2024-02-14T07:14:14;94744.31;;;6.30;100.00
3178;BME280;38141;42.666;23.344;2024-02-14T07:16:41;94751.03;;;6.39;100.00
3178;BME280;38141;42.666;23.344;2024-02-14T07:19:08;94733.28;;;6.15;100.00
3178;BME280;38141;42.666;23.344;2024-02-14T07:21:35;94749.97;;;6.24;100.00
3178;BME280;38141;42.666;23.344;2024-02-14T07:24:04;94747.91;;;6.18;100.00
3178;BME280;38141;42.666;23.344;2024-02-14T07:26:31;94737.38;;;6.29;100.00
3178;BME280;38141;42.666;23.344;2024-02-14T07:28:58;94742.63;;;6.21;100.00
3178;BME280;38141;42.666;23.344;2024-02-14T07:31:29;94750.03;;;6.28;100.00
3178;BME280;38141;42.666;23.344;2024-02-14T07:33:58;94740.00;;;6.25;100.00
3178;BME280;38141;42.666;23.344;2024-02-14T07:36:26;94753.56;;;6.32;100.00
3178;BME280;38141;42.666;23.344;2024-02-14T07:38:52;94749.69;;;6.30;100.00
3178;BME280;38141;42.666;23.344;2024-02-14T07:41:19;94747.78;;;6.30;100.00
3178;BME280;38141;42.666;23.344;2024-02-14T07:43:46;94758.16;;;6.51;100.00
3178;BME280;38141;42.666;23.344;2024-02-14T07:46:17;94737.47;;;6.13;100.00
3178;BME280;38141;42.666;23.344;2024-02-14T07:48:46;94755.97;;;6.18;100.00
3178;BME280;38141;42.666;23.344;2024-02-14T07:51:14;94768.41;;;6.45;100.00
3178;BME280;38141;42.666;23.344;2024-02-14T07:53:41;94757.81;;;6.33;100.00
3178;BME280;38141;42.666;23.344;2024-02-14T07:56:08;94763.31;;;6.59;100.00
3178;BME280;38141;42.666;23.344;2024-02-14T07:58:35;94762.69;;;6.66;100.00
3178;BME280;38141;42.666;23.344;2024-02-14T08:01:02;94769.28;;;6.91;100.00
3178;BME280;38141;42.666;23.344;2024-02-14T08:03:30;94737.31;;;6.44;100.00
3178;BME280;38141;42.666;23.344;2024-02-14T08:05:58;94760.34;;;6.45;100.00
3178;BME280;38141;42.666;23.344;2024-02-14T08:08:26;94771.03;;;6.42;100.00
3178;BME280;38141;42.666;23.344;2024-02-14T08:10:53;94764.88;;;6.41;100.00
3178;BME280;38141;42.666;23.344;2024-02-14T08:13:21;94760.94;;;6.35;100.00
3178;BME280;38141;42.666;23.344;2024-02-14T08:15:48;94764.72;;;6.15;100.00
3178;BME280;38141;42.666;23.344;2024-02-14T08:18:15;94787.22;;;6.26;100.00
3178;BME280;38141;42.666;23.344;2024-02-14T08:20:42;94771.22;;;6.14;100.00
3178;BME280;38141;42.666;23.344;2024-02-14T08:23:11;94756.41;;;5.85;100.00
3178;BME280;38141;42.666;23.344;2024-02-14T08:25:38;94790.16;;;6.02;100.00
3178;BME280;38141;42.666;23.344;2024-02-14T08:28:06;94782.59;;;6.07;100.00
3178;BME280;38141;42.666;23.344;2024-02-14T08:30:34;94799.56;;;6.11;100.00
3178;BME280;38141;42.666;23.344;2024-02-14T08:33:01;94800.38;;;6.31;100.00
3178;BME280;38141;42.666;23.344;2024-02-14T08:35:28;94783.03;;;6.09;100.00
3178;BME280;38141;42.666;23.344;2024-02-14T08:37:55;94798.19;;;6.17;100.00
3178;BME280;38141;42.666;23.344;2024-02-14T08:40:23;94776.69;;;6.17;100.00
3178;BME280;38141;42.666;23.344;2024-02-14T08:42:51;94753.38;;;5.87;100.00
3178;BME280;38141;42.666;23.344;2024-02-14T08:45:18;94791.72;;;6.03;100.00
3178;BME280;38141;42.666;23.344;2024-02-14T08:47:45;94796.97;;;6.15;100.00
3178;BME280;38141;42.666;23.344;2024-02-14T08:50:12;94808.53;;;6.19;100.00
3178;BME280;38141;42.666;23.344;2024-02-14T08:52:39;94792.81;;;6.17;100.00
3178;BME280;38141;42.666;23.344;2024-02-14T08:55:06;94816.00;;;6.25;100.00
3178;BME280;38141;42.666;23.344;2024-02-14T08:57:41;94796.97;;;6.15;100.00
3178;BME280;38141;42.666;23.344;2024-02-14T09:00:09;94808.22;;;6.05;100.00
3178;BME280;38141;42.666;23.344;2024-02-14T09:02:42;94810.72;;;6.13;100.00
3178;BME280;38141;42.666;23.344;2024-02-14T09:05:09;94815.47;;;6.20;100.00
3178;BME280;38141;42.666;23.344;2024-02-14T09:07:36;94819.88;;;6.28;100.00
3178;BME280;38141;42.666;23.344;2024-02-14T09:10:03;94823.88;;;6.18;100.00
3178;BME280;38141;42.666;23.344;2024-02-14T09:12:31;94826.50;;;6.15;100.00
3178;BME280;38141;42.666;23.344;2024-02-14T09:15:00;94817.50;;;6.07;100.00
3178;BME280;38141;42.666;23.344;2024-02-14T09:17:30;94821.78;;;6.28;100.00
3178;BME280;38141;42.666;23.344;2024-02-14T09:19:57;94828.13;;;6.19;100.00
3178;BME280;38141;42.666;23.344;2024-02-14T09:22:24;94831.44;;;6.13;100.00
3178;BME280;38141;42.666;23.344;2024-02-14T09:24:51;94826.69;;;6.06;100.00
3178;BME280;38141;42.666;23.344;2024-02-14T09:27:20;94830.09;;;5.88;100.00
3178;BME280;38141;42.666;23.344;2024-02-14T09:29:47;94824.19;;;5.82;100.00
3178;BME280;38141;42.666;23.344;2024-02-14T09:32:15;94834.00;;;5.90;100.00
3178;BME280;38141;42.666;23.344;2024-02-14T09:34:42;94832.59;;;5.65;100.00
3178;BME280;38141;42.666;23.344;2024-02-14T09:37:11;94827.50;;;5.75;100.00
3178;BME280;38141;42.666;23.344;2024-02-14T09:39:38;94827.75;;;5.70;100.00
3178;BME280;38141;42.666;23.344;2024-02-14T09:42:09;94829.84;;;5.61;100.00
3178;BME280;38141;42.666;23.344;2024-02-14T09:44:38;94815.78;;;5.68;100.00
3178;BME280;38141;42.666;23.344;2024-02-14T09:47:07;94803.41;;;5.63;100.00
3178;BME280;38141;42.666;23.344;2024-02-14T09:49:39;94830.16;;;5.91;100.00
3178;BME280;38141;42.666;23.344;2024-02-14T09:52:07;94766.56;;;5.60;100.00
3178;BME280;38141;42.666;23.344;2024-02-14T09:54:36;94820.41;;;5.99;100.00
3178;BME280;38141;42.666;23.344;2024-02-14T09:57:05;94830.94;;;6.07;100.00
3178;BME280;38141;42.666;23.344;2024-02-14T09:59:32;94832.31;;;6.01;100.00
3178;BME280;38141;42.666;23.344;2024-02-14T10:02:00;94827.53;;;6.10;100.00
3178;BME280;38141;42.666;23.344;2024-02-14T10:04:27;94832.19;;;5.94;100.00
3178;BME280;38141;42.666;23.344;2024-02-14T10:06:56;94830.44;;;6.02;100.00
3178;BME280;38141;42.666;23.344;2024-02-14T10:09:25;94821.41;;;6.10;100.00
3178;BME280;38141;42.666;23.344;2024-02-14T10:11:52;94831.53;;;6.16;100.00
3178;BME280;38141;42.666;23.344;2024-02-14T10:14:19;94826.09;;;6.13;100.00
3178;BME280;38141;42.666;23.344;2024-02-14T10:16:47;94822.81;;;6.04;100.00
3178;BME280;38141;42.666;23.344;2024-02-14T10:19:15;94820.78;;;6.16;100.00
3178;BME280;38141;42.666;23.344;2024-02-14T10:21:42;94798.81;;;5.95;100.00
3178;BME280;38141;42.666;23.344;2024-02-14T10:24:11;94837.03;;;6.23;100.00
3178;BME280;38141;42.666;23.344;2024-02-14T10:26:39;94838.53;;;6.21;100.00
3178;BME280;38141;42.666;23.344;2024-02-14T10:29:08;94826.75;;;6.25;100.00
3178;BME280;38141;42.666;23.344;2024-02-14T10:31:37;94818.59;;;6.22;100.00
3178;BME280;38141;42.666;23.344;2024-02-14T10:34:06;94831.25;;;6.41;100.00
3178;BME280;38141;42.666;23.344;2024-02-14T10:36:36;94826.34;;;6.43;100.00
3178;BME280;38141;42.666;23.344;2024-02-14T10:39:05;94826.38;;;6.27;100.00
3178;BME280;38141;42.666;23.344;2024-02-14T10:41:35;94802.31;;;6.15;100.00
3178;BME280;38141;42.666;23.344;2024-02-14T10:44:02;94827.94;;;6.28;100.00
3178;BME280;38141;42.666;23.344;2024-02-14T10:46:32;94819.84;;;6.44;100.00
3178;BME280;38141;42.666;23.344;2024-02-14T10:49:03;94799.31;;;6.36;100.00
3178;BME280;38141;42.666;23.344;2024-02-14T10:51:31;94805.31;;;6.29;100.00
3178;BME280;38141;42.666;23.344;2024-02-14T10:54:01;94810.78;;;6.52;100.00
3178;BME280;38141;42.666;23.344;2024-02-14T10:56:31;94760.56;;;6.17;100.00
3178;BME280;38141;42.666;23.344;2024-02-14T10:59:01;94813.59;;;6.59;100.00
3178;BME280;38141;42.666;23.344;2024-02-14T11:01:32;94831.22;;;6.56;100.00
3178;BME280;38141;42.666;23.344;2024-02-14T11:04:01;94827.25;;;6.50;100.00
3178;BME280;38141;42.666;23.344;2024-02-14T11:06:30;94831.56;;;6.55;100.00
3178;BME280;38141;42.666;23.344;2024-02-14T11:08:58;94815.00;;;6.34;100.00
3178;BME280;38141;42.666;23.344;2024-02-14T11:11:29;94793.06;;;6.32;100.00
3178;BME280;38141;42.666;23.344;2024-02-14T11:13:57;94829.25;;;6.53;100.00
3178;BME280;38141;42.666;23.344;2024-02-14T11:16:27;94821.19;;;6.53;100.00
3178;BME280;38141;42.666;23.344;2024-02-14T11:19:05;94832.22;;;6.67;100.00
3178;BME280;38141;42.666;23.344;2024-02-14T11:21:36;94799.69;;;6.53;100.00
3178;BME280;38141;42.666;23.344;2024-02-14T11:24:10;94834.81;;;6.64;100.00
3178;BME280;38141;42.666;23.344;2024-02-14T11:26:39;94827.19;;;6.66;100.00
3178;BME280;38141;42.666;23.344;2024-02-14T11:29:06;94830.50;;;6.59;100.00
3178;BME280;38141;42.666;23.344;2024-02-14T11:31:37;94829.72;;;6.59;100.00
3178;BME280;38141;42.666;23.344;2024-02-14T11:34:07;94832.91;;;6.64;100.00
3178;BME280;38141;42.666;23.344;2024-02-14T11:36:35;94828.88;;;6.74;100.00
3178;BME280;38141;42.666;23.344;2024-02-14T11:39:03;94816.03;;;6.45;100.00
3178;BME280;38141;42.666;23.344;2024-02-14T11:41:32;94834.75;;;6.60;100.00
3178;BME280;38141;42.666;23.344;2024-02-14T11:44:01;94827.75;;;6.56;100.00
3178;BME280;38141;42.666;23.344;2024-02-14T11:46:30;94826.75;;;6.64;100.00
3178;BME280;38141;42.666;23.344;2024-02-14T11:48:59;94823.38;;;6.48;100.00
3178;BME280;38141;42.666;23.344;2024-02-14T11:51:28;94823.03;;;6.49;100.00
3178;BME280;38141;42.666;23.344;2024-02-14T11:53:56;94835.81;;;6.75;100.00
3178;BME280;38141;42.666;23.344;2024-02-14T11:56:30;94832.50;;;6.62;100.00
3178;BME280;38141;42.666;23.344;2024-02-14T11:58:59;94822.25;;;6.49;100.00
3178;BME280;38141;42.666;23.344;2024-02-14T12:01:28;94815.94;;;6.41;100.00
3178;BME280;38141;42.666;23.344;2024-02-14T12:03:56;94830.41;;;6.37;100.00
3178;BME280;38141;42.666;23.344;2024-02-14T12:06:25;94824.50;;;6.47;100.00
3178;BME280;38141;42.666;23.344;2024-02-14T12:08:52;94813.75;;;6.47;99.65
3178;BME280;38141;42.666;23.344;2024-02-14T12:11:19;94828.69;;;6.44;100.00
3178;BME280;38141;42.666;23.344;2024-02-14T12:13:49;94821.59;;;6.55;100.00
3178;BME280;38141;42.666;23.344;2024-02-14T12:16:19;94817.06;;;6.59;99.72
3178;BME280;38141;42.666;23.344;2024-02-14T12:18:47;94821.25;;;6.57;99.83
3178;BME280;38141;42.666;23.344;2024-02-14T12:21:14;94819.28;;;6.54;100.00
3178;BME280;38141;42.666;23.344;2024-02-14T12:23:43;94819.13;;;6.66;99.89
3178;BME280;38141;42.666;23.344;2024-02-14T12:26:10;94813.97;;;6.57;100.00
3178;BME280;38141;42.666;23.344;2024-02-14T12:28:46;94810.72;;;6.67;100.00
3178;BME280;38141;42.666;23.344;2024-02-14T12:31:21;94810.84;;;6.55;100.00
3178;BME280;38141;42.666;23.344;2024-02-14T12:33:49;94808.59;;;6.77;99.76
3178;BME280;38141;42.666;23.344;2024-02-14T12:36:18;94811.97;;;6.74;100.00
3178;BME280;38141;42.666;23.344;2024-02-14T12:38:46;94809.50;;;6.65;99.58
3178;BME280;38141;42.666;23.344;2024-02-14T12:41:14;94803.34;;;6.64;99.38
3178;BME280;38141;42.666;23.344;2024-02-14T12:43:41;94799.38;;;6.78;98.60
3178;BME280;38141;42.666;23.344;2024-02-14T12:46:08;94785.47;;;6.72;96.35
3178;BME280;38141;42.666;23.344;2024-02-14T12:48:36;94793.78;;;6.86;96.32
3178;BME280;38141;42.666;23.344;2024-02-14T12:51:03;94814.44;;;6.82;97.02
3178;BME280;38141;42.666;23.344;2024-02-14T12:53:31;94823.84;;;6.92;95.52
3178;BME280;38141;42.666;23.344;2024-02-14T12:55:59;94816.22;;;6.94;95.42
3178;BME280;38141;42.666;23.344;2024-02-14T12:58:26;94811.41;;;6.84;94.78
3178;BME280;38141;42.666;23.344;2024-02-14T13:00:53;94794.16;;;6.65;95.04
3178;BME280;38141;42.666;23.344;2024-02-14T13:03:20;94817.78;;;6.76;95.10
3178;BME280;38141;42.666;23.344;2024-02-14T13:05:48;94814.31;;;6.75;94.71
3178;BME280;38141;42.666;23.344;2024-02-14T13:08:15;94813.81;;;6.89;93.58
3178;BME280;38141;42.666;23.344;2024-02-14T13:10:43;94837.28;;;6.92;93.63
3178;BME280;38141;42.666;23.344;2024-02-14T13:13:12;94796.97;;;6.72;94.12
3178;BME280;38141;42.666;23.344;2024-02-14T13:15:40;94830.34;;;6.91;91.94
3178;BME280;38141;42.666;23.344;2024-02-14T13:18:08;94797.47;;;6.78;93.58